Landrum, South Carolina
Current Conditions -  °F | °C
As of 3:53 AM on Friday 28 Nov 2014 (Local Time) from KGSP Reporting Station
Clear Clear  
Wind Chill: 24°   Ceiling: Unl
Heat Index: 31°   Visibility: 10mi
Dew Point: 17°   Wind: 7mph
Humidity: 57%   Direction: 350°N
Pressure: 30.31"   Gusts: NA
Location:  35.18°N, 82.19°W
Report Text: KGSP 280853Z AUTO 35006KT 10SM CLR M01/M08 A3031 RMK AO2 SLP267 T10061083 53005
Loading
Personal Weather Stations






























Interactive Weather Map New forecast layout! Learn more

10-Day Weather Forecast

Advertisements
Track Severe Weather on mobile